Time;durP1;ratioP1;P1;durP2;ratioP2;P2;SDS_P1;SDS_P2;PMS_P1;PMS_P2;Temp;Humidity;BMP_temperature;BMP_pressure;BME280_temperature;BME280_humidity;BME280_pressure;Samples;Min_cycle;Max_cycle;Signal;HPM_P1;HPM_P2
2022/05/19 00:00:16;;;;;;;;;;;;;;;;;;5066152;28;19915;-60
2022/05/19 00:02:42;;;;;;;;;;;;;;;;;;5073141;28;19908;-60
2022/05/19 00:05:08;;;;;;;;;;;;;;;;;;5079185;28;19920;-60
2022/05/19 00:07:34;;;;;;;;;;;;;;;;;;5065991;28;19909;-60
2022/05/19 00:10:00;;;;;;;;;;;;;;;;;;5066128;28;19908;-60
2022/05/19 00:12:25;;;;;;;;;;;;;;;;;;5065953;28;19940;-60
2022/05/19 00:14:51;;;;;;;;;;;;;;;;;;5066094;28;19908;-60
2022/05/19 00:17:17;;;;;;;;;;;;;;;;;;5066340;28;19908;-60
2022/05/19 00:19:43;;;;;;;;;;;;;;;;;;5065279;28;19913;-60
2022/05/19 00:22:11;;;;;;;;;;;;;;;;;;5066079;28;19912;-60
2022/05/19 00:24:37;;;;;;;;;;;;;;;;;;5065761;28;19952;-60
2022/05/19 00:27:03;;;;;;;;;;;;;;;;;;5068015;28;19955;-60
2022/05/19 00:29:29;;;;;;;;;;;;;;;;;;5069461;28;19905;-60
2022/05/19 00:31:55;;;;;;;;;;;;;;;;;;5069430;28;19904;-60
2022/05/19 00:34:21;;;;;;;;;;;;;;;;;;5068096;28;20019;-60
2022/05/19 00:36:47;;;;;;;;;;;;;;;;;;5069290;28;19943;-60
2022/05/19 00:39:13;;;;;;;;;;;;;;;;;;5070294;28;20395;-60
2022/05/19 00:41:39;;;;;;;;;;;;;;;;;;5069271;28;20417;-60
2022/05/19 00:44:05;;;;;;;;;;;;;;;;;;5069335;28;19908;-60
2022/05/19 00:46:31;;;;;;;;;;;;;;;;;;5067688;28;19959;-60
2022/05/19 00:48:57;;;;;;;;;;;;;;;;;;5069269;28;19909;-60
2022/05/19 00:51:23;;;;;;;;;;;;;;;;;;5069029;28;19908;-60
2022/05/19 00:53:49;;;;;;;;;;;;;;;;;;5069082;28;19919;-60
2022/05/19 00:56:15;;;;;;;;;;;;;;;;;;5069778;28;19916;-60
2022/05/19 00:58:41;;;;;;;;;;;;;;;;;;5068852;28;19908;-60
2022/05/19 01:01:07;;;;;;;;;;;;;;;;;;5068674;28;20493;-60
2022/05/19 01:03:33;;;;;;;;;;;;;;;;;;5068343;28;19908;-60
2022/05/19 01:05:59;;;;;;;;;;;;;;;;;;5069121;28;19965;-60
2022/05/19 01:08:25;;;;;;;;;;;;;;;;;;5068782;28;20002;-60
2022/05/19 01:10:51;;;;;;;;;;;;;;;;;;5068891;28;19904;-60
2022/05/19 01:13:17;;;;;;;;;;;;;;;;;;5067483;28;20003;-60
2022/05/19 01:15:43;;;;;;;;;;;;;;;;;;5068165;28;19919;-60
2022/05/19 01:18:09;;;;;;;;;;;;;;;;;;5066465;28;19912;-60
2022/05/19 01:20:35;;;;;;;;;;;;;;;;;;5068570;28;19905;-60
2022/05/19 01:23:01;;;;;;;;;;;;;;;;;;5066892;28;19909;-61
2022/05/19 01:25:27;;;;;;;;;;;;;;;;;;5068348;28;19962;-60
2022/05/19 01:27:53;;;;;;;;;;;;;;;;;;5068344;28;19908;-60
2022/05/19 01:30:18;;;;;;;;;;;;;;;;;;5068596;28;19904;-60
2022/05/19 01:32:44;;;;;;;;;;;;;;;;;;5067962;28;19922;-60
2022/05/19 01:35:10;;;;;;;;;;;;;;;;;;5068535;28;19904;-60
2022/05/19 01:37:36;;;;;;;;;;;;;;;;;;5067568;28;19904;-60
2022/05/19 01:40:02;;;;;;;;;;;;;;;;;;5068248;28;19948;-60
2022/05/19 01:42:28;;;;;;;;;;;;;;;;;;5067229;28;19944;-60
2022/05/19 01:44:54;;;;;;;;;;;;;;;;;;5067990;28;19916;-60
2022/05/19 01:47:20;;;;;;;;;;;;;;;;;;5068030;28;19998;-60
2022/05/19 01:49:46;;;;;;;;;;;;;;;;;;5068830;28;19909;-60
2022/05/19 01:52:12;;;;;;;;;;;;;;;;;;5067872;28;19925;-60
2022/05/19 01:54:38;;;;;;;;;;;;;;;;;;5067562;28;19916;-61
2022/05/19 01:57:04;;;;;;;;;;;;;;;;;;5068029;28;19912;-60
2022/05/19 01:59:30;;;;;;;;;;;;;;;;;;5067205;28;19904;-62
2022/05/19 02:01:56;;;;;;;;;;;;;;;;;;5065751;28;19931;-60
2022/05/19 02:04:22;;;;;;;;;;;;;;;;;;5067569;28;19909;-60
2022/05/19 02:06:48;;;;;;;;;;;;;;;;;;5067704;28;19904;-60
2022/05/19 02:09:15;;;;;;;;;;;;;;;;;;5068295;28;19919;-60
2022/05/19 02:11:41;;;;;;;;;;;;;;;;;;5067370;28;19909;-60
2022/05/19 02:14:07;;;;;;;;;;;;;;;;;;5065613;28;19934;-60
2022/05/19 02:16:33;;;;;;;;;;;;;;;;;;5067171;28;20528;-60
2022/05/19 02:18:59;;;;;;;;;;;;;;;;;;5067615;28;19912;-60
2022/05/19 02:21:25;;;;;;;;;;;;;;;;;;5067226;28;20275;-60
2022/05/19 02:23:51;;;;;;;;;;;;;;;;;;5066660;28;19908;-60
2022/05/19 02:26:17;;;;;;;;;;;;;;;;;;5067604;28;19912;-60
2022/05/19 02:28:43;;;;;;;;;;;;;;;;;;5067617;28;19914;-60
2022/05/19 02:31:09;;;;;;;;;;;;;;;;;;5067370;28;19939;-60
2022/05/19 02:33:35;;;;;;;;;;;;;;;;;;5065863;28;19908;-60
2022/05/19 02:36:01;;;;;;;;;;;;;;;;;;5067213;28;19911;-60
2022/05/19 02:38:27;;;;;;;;;;;;;;;;;;5066824;28;19926;-60
2022/05/19 02:40:54;;;;;;;;;;;;;;;;;;5067102;28;19908;-60
2022/05/19 02:43:20;;;;;;;;;;;;;;;;;;5066218;28;19912;-60
2022/05/19 02:45:46;;;;;;;;;;;;;;;;;;5066847;28;20271;-61
2022/05/19 02:48:12;;;;;;;;;;;;;;;;;;5067139;28;20422;-60
2022/05/19 02:50:39;;;;;;;;;;;;;;;;;;5065880;28;20002;-60
2022/05/19 02:53:05;;;;;;;;;;;;;;;;;;5066116;28;19964;-59
2022/05/19 02:55:31;;;;;;;;;;;;;;;;;;5066995;28;19908;-60
2022/05/19 02:57:58;;;;;;;;;;;;;;;;;;5066785;28;20383;-60
2022/05/19 03:00:24;;;;;;;;;;;;;;;;;;5066740;28;19919;-60
2022/05/19 03:02:50;;;;;;;;;;;;;;;;;;5065874;28;19912;-60
2022/05/19 03:05:16;;;;;;;;;;;;;;;;;;5065892;28;19957;-60
2022/05/19 03:07:42;;;;;;;;;;;;;;;;;;5066775;28;19963;-60
2022/05/19 03:10:08;;;;;;;;;;;;;;;;;;5066319;28;19904;-60
2022/05/19 03:12:34;;;;;;;;;;;;;;;;;;5065975;28;20006;-60
2022/05/19 03:15:00;;;;;;;;;;;;;;;;;;5066627;28;19916;-60
2022/05/19 03:17:26;;;;;;;;;;;;;;;;;;5066477;28;19904;-60
2022/05/19 03:19:52;;;;;;;;;;;;;;;;;;5066630;28;20355;-60
2022/05/19 03:22:18;;;;;;;;;;;;;;;;;;5066253;28;19912;-60
2022/05/19 03:24:44;;;;;;;;;;;;;;;;;;5066883;28;19974;-60
2022/05/19 03:27:10;;;;;;;;;;;;;;;;;;5066598;28;19908;-60
2022/05/19 03:29:36;;;;;;;;;;;;;;;;;;5066328;28;19905;-60
2022/05/19 03:32:02;;;;;;;;;;;;;;;;;;5065655;28;19955;-60
2022/05/19 03:34:28;;;;;;;;;;;;;;;;;;5066048;28;19904;-60
2022/05/19 03:36:54;;;;;;;;;;;;;;;;;;5066401;28;19931;-60
2022/05/19 03:39:20;;;;;;;;;;;;;;;;;;5066669;28;20008;-60
2022/05/19 03:41:46;;;;;;;;;;;;;;;;;;5066130;28;19909;-60
2022/05/19 03:44:12;;;;;;;;;;;;;;;;;;5066778;28;19908;-60
2022/05/19 03:46:38;;;;;;;;;;;;;;;;;;5066188;28;20362;-60
2022/05/19 03:49:04;;;;;;;;;;;;;;;;;;5066300;28;19913;-60
2022/05/19 03:51:30;;;;;;;;;;;;;;;;;;5065408;28;19937;-60
2022/05/19 03:53:56;;;;;;;;;;;;;;;;;;5066050;28;19916;-60
2022/05/19 03:56:22;;;;;;;;;;;;;;;;;;5066120;28;20023;-60
2022/05/19 03:58:48;;;;;;;;;;;;;;;;;;5066273;28;19904;-60
2022/05/19 04:01:14;;;;;;;;;;;;;;;;;;5067838;28;20027;-59
2022/05/19 04:03:40;;;;;;;;;;;;;;;;;;5069096;28;20012;-60
2022/05/19 04:06:06;;;;;;;;;;;;;;;;;;5070103;28;19944;-60
2022/05/19 04:08:32;;;;;;;;;;;;;;;;;;5069926;28;19927;-59
2022/05/19 04:10:58;;;;;;;;;;;;;;;;;;5069342;28;19969;-59
2022/05/19 04:13:23;;;;;;;;;;;;;;;;;;5068990;28;19995;-60
2022/05/19 04:15:49;;;;;;;;;;;;;;;;;;5069863;28;19935;-59
2022/05/19 04:18:15;;;;;;;;;;;;;;;;;;5068910;28;19912;-59
2022/05/19 04:20:41;;;;;;;;;;;;;;;;;;5069836;28;19908;-60
2022/05/19 04:23:07;;;;;;;;;;;;;;;;;;5069100;28;19919;-59
2022/05/19 04:25:33;;;;;;;;;;;;;;;;;;5068080;28;19916;-59
2022/05/19 04:27:59;;;;;;;;;;;;;;;;;;5069916;28;19912;-60
2022/05/19 04:30:25;;;;;;;;;;;;;;;;;;5069269;28;20019;-60
2022/05/19 04:32:51;;;;;;;;;;;;;;;;;;5068302;28;19908;-60
2022/05/19 04:35:17;;;;;;;;;;;;;;;;;;5069012;28;19917;-60
2022/05/19 04:37:43;;;;;;;;;;;;;;;;;;5068591;28;19931;-60
2022/05/19 04:40:09;;;;;;;;;;;;;;;;;;5069653;28;19912;-60
2022/05/19 04:42:35;;;;;;;;;;;;;;;;;;5069192;28;19916;-60
2022/05/19 04:45:01;;;;;;;;;;;;;;;;;;5068417;28;19939;-59
2022/05/19 04:47:27;;;;;;;;;;;;;;;;;;5068961;28;19959;-60
2022/05/19 04:49:53;;;;;;;;;;;;;;;;;;5069461;28;19927;-60
2022/05/19 04:52:19;;;;;;;;;;;;;;;;;;5069282;28;20264;-59
2022/05/19 04:54:45;;;;;;;;;;;;;;;;;;5068657;28;19916;-58
2022/05/19 04:57:11;;;;;;;;;;;;;;;;;;5068078;28;19958;-57
2022/05/19 04:59:37;;;;;;;;;;;;;;;;;;5068636;28;19912;-58
2022/05/19 05:02:03;;;;;;;;;;;;;;;;;;5067711;28;19924;-58
2022/05/19 05:04:30;;;;;;;;;;;;;;;;;;5068458;28;19912;-58
2022/05/19 05:06:56;;;;;;;;;;;;;;;;;;5067934;28;19909;-57
2022/05/19 05:09:22;;;;;;;;;;;;;;;;;;5065826;28;19923;-57
2022/05/19 05:11:48;;;;;;;;;;;;;;;;;;5068391;28;19908;-58
2022/05/19 05:14:14;;;;;;;;;;;;;;;;;;5068179;28;19917;-60
2022/05/19 05:16:41;;;;;;;;;;;;;;;;;;5068528;28;19909;-60
2022/05/19 05:19:07;;;;;;;;;;;;;;;;;;5068151;28;19908;-60
2022/05/19 05:21:32;;;;;;;;;;;;;;;;;;5068393;28;19954;-60
2022/05/19 05:23:58;;;;;;;;;;;;;;;;;;5064714;28;19904;-60
2022/05/19 05:26:24;;;;;;;;;;;;;;;;;;5081474;28;19912;-61
2022/05/19 05:28:50;;;;;;;;;;;;;;;;;;5067841;28;19930;-61
2022/05/19 05:31:16;;;;;;;;;;;;;;;;;;5065646;28;20371;-60
2022/05/19 05:33:42;;;;;;;;;;;;;;;;;;5048820;28;19913;-60
2022/05/19 05:36:08;;;;;;;;;;;;;;;;;;5060231;28;19908;-62
2022/05/19 05:38:34;;;;;;;;;;;;;;;;;;5068244;28;19912;-60
2022/05/19 05:41:02;;;;;;;;;;;;;;;;;;5068467;28;19914;-60
2022/05/19 05:43:28;;;;;;;;;;;;;;;;;;5067917;28;20003;-60
2022/05/19 05:45:54;;;;;;;;;;;;;;;;;;5067988;28;20011;-60
2022/05/19 05:48:20;;;;;;;;;;;;;;;;;;5067204;28;20248;-60
2022/05/19 05:50:46;;;;;;;;;;;;;;;;;;5067108;28;20371;-61
2022/05/19 05:53:12;;;;;;;;;;;;;;;;;;5065415;28;19926;-60
2022/05/19 05:55:41;;;;;;;;;;;;;;;;;;5063119;28;21460;-60
2022/05/19 05:58:07;;;;;;;;;;;;;;;;;;5065215;28;20001;-60
2022/05/19 06:00:33;;;;;;;;;;;;;;;;;;5067476;28;19944;-61
2022/05/19 06:02:59;;;;;;;;;;;;;;;;;;5068091;28;19908;-59
2022/05/19 06:05:26;;;;;;;;;;;;;;;;;;5065760;28;20298;-59
2022/05/19 06:07:53;;;;;;;;;;;;;;;;;;5066302;28;20008;-60
2022/05/19 06:10:19;;;;;;;;;;;;;;;;;;5066273;28;20349;-60
2022/05/19 06:12:45;;;;;;;;;;;;;;;;;;5066452;28;19905;-60
2022/05/19 06:15:10;;;;;;;;;;;;;;;;;;5065662;28;19962;-60
2022/05/19 06:17:39;;;;;;;;;;;;;;;;;;5065565;28;19927;-60
2022/05/19 06:20:05;;;;;;;;;;;;;;;;;;5064270;28;19919;-59
2022/05/19 06:22:32;;;;;;;;;;;;;;;;;;5066109;28;20387;-60
2022/05/19 06:24:59;;;;;;;;;;;;;;;;;;5066617;28;19915;-60
2022/05/19 06:27:25;;;;;;;;;;;;;;;;;;5065066;28;19943;-60
2022/05/19 06:29:51;;;;;;;;;;;;;;;;;;5066973;28;19962;-60
2022/05/19 06:32:18;;;;;;;;;;;;;;;;;;5067340;28;20383;-60
2022/05/19 06:34:45;;;;;;;;;;;;;;;;;;5066878;28;19916;-60
2022/05/19 06:37:12;;;;;;;;;;;;;;;;;;5067492;28;19915;-60
2022/05/19 06:39:38;;;;;;;;;;;;;;;;;;5066553;28;19908;-60
2022/05/19 06:42:05;;;;;;;;;;;;;;;;;;5067092;28;19995;-60
2022/05/19 06:44:31;;;;;;;;;;;;;;;;;;5066104;28;19974;-60
2022/05/19 06:46:57;;;;;;;;;;;;;;;;;;5066841;28;19939;-60
2022/05/19 06:49:23;;;;;;;;;;;;;;;;;;5066563;28;19943;-60
2022/05/19 06:51:49;;;;;;;;;;;;;;;;;;5066666;28;19917;-60
2022/05/19 06:54:15;;;;;;;;;;;;;;;;;;5067160;28;20386;-61
2022/05/19 06:56:42;;;;;;;;;;;;;;;;;;5065515;28;19912;-61
2022/05/19 06:59:08;;;;;;;;;;;;;;;;;;5074528;28;19961;-60
2022/05/19 07:01:34;;;;;;;;;;;;;;;;;;5071324;28;19946;-60
2022/05/19 07:04:00;;;;;;;;;;;;;;;;;;5067572;28;19908;-60
2022/05/19 07:06:26;;;;;;;;;;;;;;;;;;5067454;28;19916;-61
2022/05/19 07:08:52;;;;;;;;;;;;;;;;;;5067540;28;19935;-61
2022/05/19 07:11:27;;;;;;;;;;;;;;;;;;5087798;28;19904;-60
2022/05/19 07:13:53;;;;;;;;;;;;;;;;;;5079333;28;19905;-60
2022/05/19 07:16:19;;;;;;;;;;;;;;;;;;5067728;28;19904;-60
2022/05/19 07:18:45;;;;;;;;;;;;;;;;;;5066123;28;19915;-60
2022/05/19 07:21:12;;;;;;;;;;;;;;;;;;5053290;28;19935;-61
2022/05/19 07:23:38;;;;;;;;;;;;;;;;;;5046588;28;19904;-60
2022/05/19 07:26:04;;;;;;;;;;;;;;;;;;5054721;28;20187;-61
2022/05/19 07:28:30;;;;;;;;;;;;;;;;;;5054598;28;20300;-61
2022/05/19 07:30:56;;;;;;;;;;;;;;;;;;5055601;28;19915;-60
2022/05/19 07:33:21;;;;;;;;;;;;;;;;;;5051532;28;19916;-60
2022/05/19 07:35:49;;;;;;;;;;;;;;;;;;5055671;28;20030;-60
2022/05/19 07:38:15;;;;;;;;;;;;;;;;;;5059321;28;19915;-60
2022/05/19 07:40:41;;;;;;;;;;;;;;;;;;5060018;28;20298;-60
2022/05/19 07:45:52;;;;;;;;;;;;;;;;;;5059862;28;19924;-61
2022/05/19 07:48:19;;;;;;;;;;;;;;;;;;5058760;28;19916;-61
2022/05/19 07:50:45;;;;;;;;;;;;;;;;;;5060366;28;19950;-61
2022/05/19 07:53:11;;;;;;;;;;;;;;;;;;5055309;28;20387;-61
2022/05/19 07:55:38;;;;;;;;;;;;;;;;;;5059761;28;19916;-60
2022/05/19 07:58:04;;;;;;;;;;;;;;;;;;5059015;28;20353;-61
2022/05/19 08:00:30;;;;;;;;;;;;;;;;;;5060113;28;20871;-60
2022/05/19 08:02:56;;;;;;;;;;;;;;;;;;5055612;28;19923;-61
2022/05/19 08:05:22;;;;;;;;;;;;;;;;;;5059370;28;20878;-60
2022/05/19 08:07:48;;;;;;;;;;;;;;;;;;5058877;28;20488;-61
2022/05/19 08:10:26;;;;;;;;;;;;;;;;;;5059892;28;19990;-60
2022/05/19 08:15:37;;;;;;;;;;;;;;;;;;5059291;28;19967;-60
2022/05/19 08:18:04;;;;;;;;;;;;;;;;;;5058882;28;19919;-60
2022/05/19 08:20:31;;;;;;;;;;;;;;;;;;5060102;28;19917;-60
2022/05/19 08:22:57;;;;;;;;;;;;;;;;;;5055664;28;19999;-61
2022/05/19 08:25:27;;;;;;;;;;;;;;;;;;5058783;28;19920;-61
2022/05/19 08:27:53;;;;;;;;;;;;;;;;;;5057833;28;19931;-61
2022/05/19 08:30:19;;;;;;;;;;;;;;;;;;5057171;28;19916;-61
2022/05/19 08:32:45;;;;;;;;;;;;;;;;;;5057650;28;20251;-60
2022/05/19 08:35:11;;;;;;;;;;;;;;;;;;5061423;28;19912;-60
2022/05/19 08:37:37;;;;;;;;;;;;;;;;;;5059484;28;19912;-60
2022/05/19 08:40:03;;;;;;;;;;;;;;;;;;5061941;28;19913;-60
2022/05/19 08:42:29;;;;;;;;;;;;;;;;;;5057229;28;19923;-60
2022/05/19 08:44:55;;;;;;;;;;;;;;;;;;5061245;28;19912;-61
2022/05/19 08:47:21;;;;;;;;;;;;;;;;;;5059842;28;19912;-61
2022/05/19 08:49:47;;;;;;;;;;;;;;;;;;5059756;28;19908;-63
2022/05/19 08:52:13;;;;;;;;;;;;;;;;;;5057971;28;19916;-60
2022/05/19 08:54:39;;;;;;;;;;;;;;;;;;5060618;28;19973;-60
2022/05/19 08:57:05;;;;;;;;;;;;;;;;;;5060784;28;19965;-61
2022/05/19 08:59:31;;;;;;;;;;;;;;;;;;5061065;28;19919;-61
2022/05/19 09:01:58;;;;;;;;;;;;;;;;;;5057368;28;19912;-61
2022/05/19 09:04:26;;;;;;;;;;;;;;;;;;5059038;28;19920;-62
2022/05/19 09:09:36;;;;;;;;;;;;;;;;;;5060711;28;19916;-63
2022/05/19 09:12:04;;;;;;;;;;;;;;;;;;5058335;28;19983;-61
2022/05/19 09:14:30;;;;;;;;;;;;;;;;;;5060070;28;19912;-61
2022/05/19 09:16:56;;;;;;;;;;;;;;;;;;5060129;28;19917;-60
2022/05/19 09:19:22;;;;;;;;;;;;;;;;;;5060019;28;19919;-60
2022/05/19 09:21:48;;;;;;;;;;;;;;;;;;5058627;28;20275;-61
2022/05/19 09:24:14;;;;;;;;;;;;;;;;;;5059662;28;19965;-61
2022/05/19 09:26:40;;;;;;;;;;;;;;;;;;5060667;28;19908;-60
2022/05/19 09:29:07;;;;;;;;;;;;;;;;;;5059975;28;19953;-62
2022/05/19 09:31:33;;;;;;;;;;;;;;;;;;5059532;28;19920;-61
2022/05/19 09:33:59;;;;;;;;;;;;;;;;;;5057189;28;19912;-60
2022/05/19 09:36:25;;;;;;;;;;;;;;;;;;5059399;28;19956;-60
2022/05/19 09:38:51;;;;;;;;;;;;;;;;;;5059734;28;19960;-61
2022/05/19 09:41:17;;;;;;;;;;;;;;;;;;5060045;28;19951;-61
2022/05/19 09:43:43;;;;;;;;;;;;;;;;;;5057208;28;19909;-61
2022/05/19 09:46:09;;;;;;;;;;;;;;;;;;5059943;28;19908;-60
2022/05/19 09:48:35;;;;;;;;;;;;;;;;;;5060041;28;20328;-61
2022/05/19 09:51:02;;;;;;;;;;;;;;;;;;5061416;28;19912;-61
2022/05/19 09:53:29;;;;;;;;;;;;;;;;;;5056414;28;19916;-60
2022/05/19 09:55:55;;;;;;;;;;;;;;;;;;5059336;28;19962;-60
2022/05/19 09:58:22;;;;;;;;;;;;;;;;;;5057600;28;19932;-60
2022/05/19 10:00:49;;;;;;;;;;;;;;;;;;5059644;28;19943;-60
2022/05/19 10:03:14;;;;;;;;;;;;;;;;;;5056100;28;19926;-60
2022/05/19 10:05:40;;;;;;;;;;;;;;;;;;5058946;28;19917;-60
2022/05/19 10:08:07;;;;;;;;;;;;;;;;;;5059735;28;19904;-61
2022/05/19 10:10:33;;;;;;;;;;;;;;;;;;5057180;28;19920;-60
2022/05/19 10:12:59;;;;;;;;;;;;;;;;;;5053669;28;20303;-61
2022/05/19 10:15:26;;;;;;;;;;;;;;;;;;5056361;28;19923;-60
2022/05/19 10:17:53;;;;;;;;;;;;;;;;;;5062043;28;19909;-60
2022/05/19 10:20:18;;;;;;;;;;;;;;;;;;5067354;28;19904;-60
2022/05/19 10:22:45;;;;;;;;;;;;;;;;;;5082358;28;19919;-59
2022/05/19 10:25:11;;;;;;;;;;;;;;;;;;5067433;28;19913;-60
2022/05/19 10:33:07;;;;;;;;;;;;;;;;;;5065716;28;19922;-59
2022/05/19 10:35:34;;;;;;;;;;;;;;;;;;5065387;28;20334;-59
2022/05/19 10:38:00;;;;;;;;;;;;;;;;;;5065778;28;19911;-61
2022/05/19 10:40:28;;;;;;;;;;;;;;;;;;5065492;28;19904;-59
2022/05/19 10:42:56;;;;;;;;;;;;;;;;;;5065538;28;19923;-59
2022/05/19 10:45:22;;;;;;;;;;;;;;;;;;5065704;28;20256;-60
2022/05/19 10:47:48;;;;;;;;;;;;;;;;;;5065402;28;19916;-59
2022/05/19 10:50:13;;;;;;;;;;;;;;;;;;5066411;28;20007;-59
2022/05/19 10:52:39;;;;;;;;;;;;;;;;;;5065364;28;19939;-60
2022/05/19 10:55:05;;;;;;;;;;;;;;;;;;5065268;28;19912;-59
2022/05/19 10:57:31;;;;;;;;;;;;;;;;;;5064927;28;19958;-60
2022/05/19 10:59:57;;;;;;;;;;;;;;;;;;5065389;28;20006;-59
2022/05/19 11:02:23;;;;;;;;;;;;;;;;;;5065049;28;19914;-59
2022/05/19 11:04:49;;;;;;;;;;;;;;;;;;5065270;28;19908;-60
2022/05/19 11:07:16;;;;;;;;;;;;;;;;;;5081546;28;19916;-59
2022/05/19 11:09:42;;;;;;;;;;;;;;;;;;5065420;28;20279;-60
2022/05/19 11:12:08;;;;;;;;;;;;;;;;;;5064133;28;19912;-60
2022/05/19 11:14:34;;;;;;;;;;;;;;;;;;5065035;28;19912;-60
2022/05/19 11:17:00;;;;;;;;;;;;;;;;;;5065166;28;19904;-59
2022/05/19 11:19:27;;;;;;;;;;;;;;;;;;5065023;28;19911;-59
2022/05/19 11:21:53;;;;;;;;;;;;;;;;;;5065158;28;20003;-60
2022/05/19 11:24:22;;;;;;;;;;;;;;;;;;5065059;28;20003;-59
2022/05/19 11:26:48;;;;;;;;;;;;;;;;;;5064834;28;20303;-59
2022/05/19 11:29:14;;;;;;;;;;;;;;;;;;5066136;28;19912;-59
2022/05/19 11:31:41;;;;;;;;;;;;;;;;;;5064881;28;19983;-59
2022/05/19 11:34:07;;;;;;;;;;;;;;;;;;5065110;28;19908;-59
2022/05/19 11:36:33;;;;;;;;;;;;;;;;;;5065090;28;19916;-59
2022/05/19 11:39:00;;;;;;;;;;;;;;;;;;5064874;28;19913;-61
2022/05/19 11:41:26;;;;;;;;;;;;;;;;;;5064522;28;19991;-59
2022/05/19 11:43:52;;;;;;;;;;;;;;;;;;5064881;28;20482;-59
2022/05/19 11:46:18;;;;;;;;;;;;;;;;;;5064787;28;20290;-59
2022/05/19 11:56:59;;;;;;;;;;;;;;;;;;5064810;28;19978;-60
2022/05/19 11:59:24;;;;;;;;;;;;;;;;;;5064599;28;20375;-62
2022/05/19 12:01:51;;;;;;;;;;;;;;;;;;5064931;28;19954;-60
2022/05/19 12:04:18;;;;;;;;;;;;;;;;;;5064779;28;19904;-60
2022/05/19 12:06:45;;;;;;;;;;;;;;;;;;5065344;28;20451;-60
2022/05/19 12:09:11;;;;;;;;;;;;;;;;;;5064014;28;19916;-59
2022/05/19 12:11:37;;;;;;;;;;;;;;;;;;5065950;28;20270;-60
2022/05/19 12:14:03;;;;;;;;;;;;;;;;;;5066060;28;19900;-60
2022/05/19 12:16:28;;;;;;;;;;;;;;;;;;5066142;28;19908;-63
2022/05/19 12:18:57;;;;;;;;;;;;;;;;;;5065698;28;19904;-59
2022/05/19 12:21:23;;;;;;;;;;;;;;;;;;5064414;28;19905;-60
2022/05/19 12:23:49;;;;;;;;;;;;;;;;;;5067527;28;20085;-62
2022/05/19 12:26:16;;;;;;;;;;;;;;;;;;5067589;28;20390;-60
2022/05/19 12:28:42;;;;;;;;;;;;;;;;;;5067358;28;19908;-61
2022/05/19 12:33:52;;;;;;;;;;;;;;;;;;5069129;28;19912;-61
2022/05/19 12:36:18;;;;;;;;;;;;;;;;;;5073547;28;19908;-60
2022/05/19 12:38:44;;;;;;;;;;;;;;;;;;5069724;28;20406;-60
2022/05/19 12:41:10;;;;;;;;;;;;;;;;;;5076669;28;20080;-61
2022/05/19 12:43:37;;;;;;;;;;;;;;;;;;5074752;28;19908;-60
2022/05/19 12:46:03;;;;;;;;;;;;;;;;;;5068843;28;20295;-60
2022/05/19 12:48:28;;;;;;;;;;;;;;;;;;5068789;28;19909;-59
2022/05/19 12:50:55;;;;;;;;;;;;;;;;;;5067554;28;19919;-60
2022/05/19 12:53:21;;;;;;;;;;;;;;;;;;5068674;28;19908;-60
2022/05/19 12:55:47;;;;;;;;;;;;;;;;;;5084516;28;19907;-61
2022/05/19 12:58:13;;;;;;;;;;;;;;;;;;5069417;28;19944;-60
2022/05/19 13:00:41;;;;;;;;;;;;;;;;;;5068686;28;20272;-60
2022/05/19 13:03:08;;;;;;;;;;;;;;;;;;5067975;28;20779;-60
2022/05/19 13:05:35;;;;;;;;;;;;;;;;;;5052610;28;20011;-59
2022/05/19 13:08:01;;;;;;;;;;;;;;;;;;5068522;28;19909;-61
2022/05/19 13:10:28;;;;;;;;;;;;;;;;;;5069141;28;20011;-60
2022/05/19 13:12:54;;;;;;;;;;;;;;;;;;5068495;28;19916;-60
2022/05/19 13:15:20;;;;;;;;;;;;;;;;;;5068718;28;19904;-60
2022/05/19 13:17:46;;;;;;;;;;;;;;;;;;5070181;28;19905;-60
2022/05/19 13:20:12;;;;;;;;;;;;;;;;;;5069894;28;19966;-60
2022/05/19 13:22:38;;;;;;;;;;;;;;;;;;5065213;28;20017;-65
2022/05/19 13:25:04;;;;;;;;;;;;;;;;;;5068430;28;19923;-62
2022/05/19 13:30:21;;;;;;;;;;;;;;;;;;5058278;28;19958;-61
2022/05/19 13:32:48;;;;;;;;;;;;;;;;;;5068254;28;19962;-62
2022/05/19 13:35:14;;;;;;;;;;;;;;;;;;5060990;28;19930;-62
2022/05/19 13:37:40;;;;;;;;;;;;;;;;;;5064742;28;19912;-60
2022/05/19 13:40:05;;;;;;;;;;;;;;;;;;5075315;28;19951;-60
2022/05/19 13:42:31;;;;;;;;;;;;;;;;;;5077625;28;19912;-62
2022/05/19 13:44:57;;;;;;;;;;;;;;;;;;5076107;28;19912;-61
2022/05/19 13:47:25;;;;;;;;;;;;;;;;;;5067873;28;20020;-63
2022/05/19 13:49:51;;;;;;;;;;;;;;;;;;5067508;28;19912;-61
2022/05/19 13:52:18;;;;;;;;;;;;;;;;;;5067980;28;20297;-60
2022/05/19 13:54:44;;;;;;;;;;;;;;;;;;5068609;28;19920;-60
2022/05/19 13:57:11;;;;;;;;;;;;;;;;;;5068455;28;20395;-60
2022/05/19 13:59:37;;;;;;;;;;;;;;;;;;5074677;28;19916;-61
2022/05/19 14:02:06;;;;;;;;;;;;;;;;;;5068314;28;19911;-60
2022/05/19 14:04:32;;;;;;;;;;;;;;;;;;5066770;28;19912;-59
2022/05/19 14:06:59;;;;;;;;;;;;;;;;;;5066373;28;19904;-58
2022/05/19 14:09:26;;;;;;;;;;;;;;;;;;5065912;28;20477;-59
2022/05/19 14:11:51;;;;;;;;;;;;;;;;;;5066284;28;19908;-61
2022/05/19 14:14:17;;;;;;;;;;;;;;;;;;5066290;28;20285;-61
2022/05/19 14:16:44;;;;;;;;;;;;;;;;;;5066493;28;20078;-59
2022/05/19 14:19:10;;;;;;;;;;;;;;;;;;5066218;28;19931;-61
2022/05/19 14:21:37;;;;;;;;;;;;;;;;;;5065803;28;20351;-60
2022/05/19 14:24:03;;;;;;;;;;;;;;;;;;5066008;28;20294;-59
2022/05/19 14:26:29;;;;;;;;;;;;;;;;;;5065720;28;19912;-60
2022/05/19 14:28:55;;;;;;;;;;;;;;;;;;5064777;28;19979;-60
2022/05/19 14:31:21;;;;;;;;;;;;;;;;;;5065806;28;19909;-59
2022/05/19 14:33:47;;;;;;;;;;;;;;;;;;5066576;28;19909;-59
2022/05/19 14:36:13;;;;;;;;;;;;;;;;;;5064930;28;19912;-59
2022/05/19 14:38:39;;;;;;;;;;;;;;;;;;5065072;28;19916;-59
2022/05/19 14:43:51;;;;;;;;;;;;;;;;;;5064978;28;19919;-60
2022/05/19 14:46:17;;;;;;;;;;;;;;;;;;5067295;28;19918;-59
2022/05/19 14:48:43;;;;;;;;;;;;;;;;;;5066876;28;19904;-59
2022/05/19 14:51:09;;;;;;;;;;;;;;;;;;5065639;28;19939;-61
2022/05/19 14:53:35;;;;;;;;;;;;;;;;;;5065107;28;19916;-59
2022/05/19 14:56:02;;;;;;;;;;;;;;;;;;5065327;28;20193;-59
2022/05/19 14:58:29;;;;;;;;;;;;;;;;;;5065081;28;20002;-59
2022/05/19 15:00:54;;;;;;;;;;;;;;;;;;5065558;28;19908;-59
2022/05/19 15:03:20;;;;;;;;;;;;;;;;;;5065469;28;19908;-60
2022/05/19 15:05:46;;;;;;;;;;;;;;;;;;5066171;28;19908;-59
2022/05/19 15:08:16;;;;;;;;;;;;;;;;;;5065844;28;19904;-59
2022/05/19 15:10:42;;;;;;;;;;;;;;;;;;5065558;28;20449;-59
2022/05/19 15:13:08;;;;;;;;;;;;;;;;;;5065499;28;19908;-60
2022/05/19 15:15:34;;;;;;;;;;;;;;;;;;5065018;28;20287;-59
2022/05/19 15:18:00;;;;;;;;;;;;;;;;;;5063545;28;19958;-59
2022/05/19 15:20:26;;;;;;;;;;;;;;;;;;5065873;28;20694;-60
2022/05/19 15:22:52;;;;;;;;;;;;;;;;;;5062911;28;19908;-59
2022/05/19 15:25:18;;;;;;;;;;;;;;;;;;5066711;28;19914;-59
2022/05/19 15:27:44;;;;;;;;;;;;;;;;;;5067176;28;19962;-61
2022/05/19 15:30:10;;;;;;;;;;;;;;;;;;5066674;28;19912;-60
2022/05/19 15:32:36;;;;;;;;;;;;;;;;;;5066416;28;19908;-60
2022/05/19 15:35:02;;;;;;;;;;;;;;;;;;5066561;28;19909;-59
2022/05/19 15:37:28;;;;;;;;;;;;;;;;;;5065220;28;20287;-60
2022/05/19 15:39:54;;;;;;;;;;;;;;;;;;5066801;28;19912;-60
2022/05/19 15:42:20;;;;;;;;;;;;;;;;;;5066673;28;19910;-59
2022/05/19 15:44:45;;;;;;;;;;;;;;;;;;5066914;28;19919;-61
2022/05/19 15:47:11;;;;;;;;;;;;;;;;;;5066231;28;19965;-61
2022/05/19 15:49:37;;;;;;;;;;;;;;;;;;5065420;28;19908;-59
2022/05/19 15:52:03;;;;;;;;;;;;;;;;;;5064673;28;19919;-62
2022/05/19 15:54:30;;;;;;;;;;;;;;;;;;5066019;28;19916;-60
2022/05/19 15:56:56;;;;;;;;;;;;;;;;;;5065915;28;19912;-59
2022/05/19 15:59:22;;;;;;;;;;;;;;;;;;5069090;28;19915;-60
2022/05/19 16:01:48;;;;;;;;;;;;;;;;;;5069496;28;19916;-60
2022/05/19 16:04:14;;;;;;;;;;;;;;;;;;5070969;28;19909;-60
2022/05/19 16:06:40;;;;;;;;;;;;;;;;;;5069374;28;19976;-59
2022/05/19 16:09:06;;;;;;;;;;;;;;;;;;5069921;28;19908;-59
2022/05/19 16:11:32;;;;;;;;;;;;;;;;;;5070095;28;19957;-59
2022/05/19 16:13:59;;;;;;;;;;;;;;;;;;5069248;28;19991;-61
2022/05/19 16:16:26;;;;;;;;;;;;;;;;;;5068298;28;19916;-60
2022/05/19 16:18:52;;;;;;;;;;;;;;;;;;5071810;28;20422;-60
2022/05/19 16:21:18;;;;;;;;;;;;;;;;;;5063142;28;19905;-60
2022/05/19 16:23:44;;;;;;;;;;;;;;;;;;5063685;28;20406;-59
2022/05/19 16:26:10;;;;;;;;;;;;;;;;;;5069126;28;19916;-60
2022/05/19 16:28:36;;;;;;;;;;;;;;;;;;5068928;28;19994;-59
2022/05/19 16:31:03;;;;;;;;;;;;;;;;;;5067902;28;19908;-59
2022/05/19 16:33:29;;;;;;;;;;;;;;;;;;5066466;28;19947;-59
2022/05/19 16:35:55;;;;;;;;;;;;;;;;;;5069677;28;19940;-62
2022/05/19 16:38:21;;;;;;;;;;;;;;;;;;5068115;28;19916;-59
2022/05/19 16:40:47;;;;;;;;;;;;;;;;;;5069624;28;19950;-58
2022/05/19 16:43:13;;;;;;;;;;;;;;;;;;5070252;28;20003;-61
2022/05/19 16:45:39;;;;;;;;;;;;;;;;;;5069122;28;20484;-59
2022/05/19 16:48:05;;;;;;;;;;;;;;;;;;5069509;28;19946;-59
2022/05/19 16:50:31;;;;;;;;;;;;;;;;;;5068202;28;19912;-60
2022/05/19 16:52:57;;;;;;;;;;;;;;;;;;5068184;28;19948;-60
2022/05/19 16:58:08;;;;;;;;;;;;;;;;;;5069153;28;19914;-59
2022/05/19 17:00:33;;;;;;;;;;;;;;;;;;5067997;28;20450;-60
2022/05/19 17:02:59;;;;;;;;;;;;;;;;;;5069256;28;19908;-61
2022/05/19 17:05:25;;;;;;;;;;;;;;;;;;5068812;28;19912;-61
2022/05/19 17:07:51;;;;;;;;;;;;;;;;;;5067898;28;19934;-60
2022/05/19 17:10:20;;;;;;;;;;;;;;;;;;5068060;28;19904;-59